Aroma Park, IL (60910)

8:44 PM CST on January 25, 2015 (GMT -0600)
APRSWXNET Bourbonnais IL US | Change Station
CLOSE
Current Station
Personal Weather Station
Location: Bradley, IL
Elevation: 656 ft
Nearby Weather Stations

Elev 656 ft 41.17 °N, 87.83 °W | Updated 44 minutes ago

Overcast
Overcast
28 °F
Feels Like 28 °F
N
1
Wind Variable Wind from NNW
Gusts 5.0 mph

Today
High -- | Low -- °F
--% Chance of Precip.
Yesterday
High -- | Low -- °F
Precip. -- in
7:08 AM 4:59 PM
Waxing Crescent, 38% visible
Pressure 29.95 in
Visibility 10.0 miles
Clouds Mostly Cloudy 1600 ft
Overcast 3200 ft
Windchill 28 °F
Dew Point 24 °F
Humidity 85%
Rainfall 0.08 in
Snow Depth Not available.
UV 0 out of 12
Pollen .10 out of 12
Air Quality Not available.
Flu Activity Not available.
METAR KIKK 260235Z AUTO 03012G17KT 10SM UP BKN016 OVC032 M02/M05 A2995 RMK AO2 T10251049

More Conditions Fewer Conditions

Pressure 29.95 in
Visibility 10.0 miles
Clouds Mostly Cloudy 1600 ft
Overcast 3200 ft
Windchill 28 °F
Dew Point 24 °F
Humidity 85%
Rainfall 0.08 in
Snow Depth Not available.
UV 0 out of 12
Pollen .10 out of 12
Air Quality Not available.
Flu Activity Not available.
METAR KIKK 260235Z AUTO 03012G17KT 10SM UP BKN016 OVC032 M02/M05 A2995 RMK AO2 T10251049

More Conditions Fewer Conditions

10-Day Weather Forecast

Almanac

Astronomy

Jan. 25, 2015 Rise Set
Actual Time
Civil Twilight
Nautical Twilight
Astronomical Twilight
Moon
Length of Visible Light
Length of Day
Tomorrow will be .
, % of the Moon is Illuminated

Today's Extremes

State Highs State Lows

Community

WunderPhotos

Upload Photos

1,790,085 photos uploaded!

WunderBlogs® & News

Nearby

Air Quality

  Air Quality AQ Index Pollutant
Not available.

Snow Depth

Station Depth Elevation

Earthquake Activity

City Distance Mag. Time & Date
Minimum magnitude displayed is 2.5.

Coastal Water Temperatures

Place Temperature

Nearby Weather Stations